Time;durP1;ratioP1;P1;durP2;ratioP2;P2;SDS_P1;SDS_P2;PMS_P1;PMS_P2;Temp;Humidity;BMP_temperature;BMP_pressure;BME280_temperature;BME280_humidity;BME280_pressure;Samples;Min_cycle;Max_cycle;Signal;HPM_P1;HPM_P2
2023/06/27 00:00:21;;;;;;;1.63;0.80;;;14.40;99.90;;;;;;6246530;23;20009;-84
2023/06/27 00:02:47;;;;;;;2.25;0.68;;;14.40;99.90;;;;;;6246304;23;20059;-82
2023/06/27 00:05:13;;;;;;;3.20;0.80;;;14.40;99.90;;;;;;6218605;23;20012;-82
2023/06/27 00:07:42;;;;;;;1.85;0.70;;;14.40;99.90;;;;;;6246186;23;20351;-83
2023/06/27 00:10:11;;;;;;;1.73;0.70;;;14.40;99.90;;;;;;6218829;23;20027;-82
2023/06/27 00:12:37;;;;;;;1.75;0.95;;;14.40;99.90;;;;;;6245609;23;20078;-82
2023/06/27 00:15:05;;;;;;;2.28;0.90;;;14.30;99.90;;;;;;6218816;23;20027;-82
2023/06/27 00:17:40;;;;;;;3.20;0.80;;;14.30;99.90;;;;;;6219018;23;20039;-83
2023/06/27 00:20:09;;;;;;;1.55;0.70;;;14.30;99.90;;;;;;6246194;23;20351;-83
2023/06/27 00:22:39;;;;;;;1.45;0.60;;;14.30;99.90;;;;;;6246115;23;20016;-83
2023/06/27 00:25:10;;;;;;;1.90;0.77;;;14.30;99.90;;;;;;6245817;23;20462;-83
2023/06/27 00:27:36;;;;;;;2.30;0.70;;;14.20;99.90;;;;;;6218678;23;20027;-82
2023/06/27 00:30:03;;;;;;;1.77;0.80;;;14.20;99.90;;;;;;6218693;23;20098;-83
2023/06/27 00:32:28;;;;;;;2.60;0.73;;;14.20;99.90;;;;;;6245796;23;20012;-82
2023/06/27 00:34:54;;;;;;;1.75;0.70;;;14.20;99.90;;;;;;6218545;23;20458;-83
2023/06/27 00:37:22;;;;;;;1.75;0.80;;;14.20;99.90;;;;;;6218740;23;20056;-84
2023/06/27 00:39:50;;;;;;;2.92;0.75;;;14.10;99.90;;;;;;6245741;23;20320;-83
2023/06/27 00:42:16;;;;;;;2.15;0.85;;;14.10;99.90;;;;;;6245634;23;20031;-82
2023/06/27 00:44:42;;;;;;;1.63;0.75;;;14.10;99.90;;;;;;6245776;23;20016;-83
2023/06/27 00:47:07;;;;;;;1.60;0.95;;;14.10;99.90;;;;;;6245475;23;20027;-82
2023/06/27 00:49:34;;;;;;;1.83;0.85;;;14.00;99.90;;;;;;6245433;23;20339;-82
2023/06/27 00:52:01;;;;;;;1.85;0.90;;;14.00;99.90;;;;;;6245481;23;20481;-83
2023/06/27 00:54:27;;;;;;;2.25;0.90;;;14.00;99.90;;;;;;6218759;23;20138;-82
2023/06/27 00:56:53;;;;;;;2.38;1.10;;;14.00;99.90;;;;;;6218393;23;20020;-82
2023/06/27 00:59:19;;;;;;;3.15;1.38;;;14.00;99.90;;;;;;6245352;23;20455;-83
2023/06/27 01:01:52;;;;;;;2.08;1.00;;;14.00;99.90;;;;;;6245560;23;20103;-82
2023/06/27 01:04:18;;;;;;;3.85;0.85;;;14.00;99.90;;;;;;6218613;23;20020;-83
2023/06/27 01:06:56;;;;;;;2.92;1.10;;;13.90;99.90;;;;;;6218465;23;20091;-82
2023/06/27 01:09:40;;;;;;;1.33;0.80;;;13.90;99.90;;;;;;6218219;23;20028;-82
2023/06/27 01:12:12;;;;;;;2.20;1.20;;;14.00;99.90;;;;;;6218320;23;20024;-82
2023/06/27 01:14:41;;;;;;;2.38;1.42;;;13.90;99.90;;;;;;6193124;23;20016;-82
2023/06/27 01:17:07;;;;;;;2.53;0.90;;;13.90;99.90;;;;;;6218274;23;20051;-83
2023/06/27 01:19:34;;;;;;;1.55;0.80;;;13.90;99.90;;;;;;6245405;23;20014;-82
2023/06/27 01:22:05;;;;;;;2.20;0.85;;;13.90;99.90;;;;;;6245079;23;20024;-83
2023/06/27 01:24:31;;;;;;;1.45;1.00;;;13.80;99.90;;;;;;6245090;23;20019;-83
2023/06/27 01:26:57;;;;;;;3.47;0.85;;;13.80;99.90;;;;;;6245136;23;20024;-84
2023/06/27 01:29:22;;;;;;;2.03;1.10;;;13.90;99.90;;;;;;6244769;23;20020;-82
2023/06/27 01:32:16;;;;;;;2.28;0.80;;;13.80;99.90;;;;;;6218208;23;20027;-83
2023/06/27 01:35:02;;;;;;;1.55;0.95;;;13.80;99.90;;;;;;6244934;23;20474;-84
2023/06/27 01:37:41;;;;;;;3.72;1.00;;;13.70;99.90;;;;;;6218255;23;20016;-83
2023/06/27 01:40:10;;;;;;;2.05;1.00;;;13.70;99.90;;;;;;6245345;23;20012;-83
2023/06/27 01:42:49;;;;;;;2.03;0.90;;;13.70;99.90;;;;;;6245463;23;20024;-84
2023/06/27 01:45:17;;;;;;;1.98;1.00;;;13.70;99.90;;;;;;6245327;23;20335;-82
2023/06/27 01:47:44;;;;;;;2.03;1.08;;;13.80;99.90;;;;;;6245391;23;20024;-82
2023/06/27 01:50:11;;;;;;;3.28;0.90;;;13.70;99.90;;;;;;6217983;23;20082;-83
2023/06/27 01:52:37;;;;;;;2.95;0.98;;;13.60;99.90;;;;;;6245115;23;20070;-83
2023/06/27 01:55:03;;;;;;;1.88;0.93;;;13.60;99.90;;;;;;6218039;23;20024;-83
2023/06/27 01:57:29;;;;;;;1.60;0.80;;;13.60;99.90;;;;;;6218183;23;20086;-83
2023/06/27 01:59:55;;;;;;;1.73;1.00;;;13.60;99.90;;;;;;6245308;23;20020;-82
2023/06/27 02:02:20;;;;;;;3.03;1.30;;;13.60;99.90;;;;;;6247503;23;20078;-82
2023/06/27 02:04:46;;;;;;;1.27;1.10;;;13.60;99.90;;;;;;6247171;23;20335;-82
2023/06/27 02:07:12;;;;;;;2.85;1.10;;;13.60;99.90;;;;;;6220104;23;20024;-82
2023/06/27 02:09:38;;;;;;;5.53;1.25;;;13.60;99.90;;;;;;6220095;23;20082;-82
2023/06/27 02:12:04;;;;;;;2.08;1.02;;;13.60;99.90;;;;;;6219921;23;20346;-83
2023/06/27 02:14:30;;;;;;;2.40;0.98;;;13.60;99.90;;;;;;6195246;23;20024;-82
2023/06/27 02:16:56;;;;;;;2.15;1.00;;;13.60;99.90;;;;;;6195548;23;20051;-83
2023/06/27 02:19:22;;;;;;;1.90;0.90;;;13.50;99.90;;;;;;6219605;23;20024;-83
2023/06/27 02:21:49;;;;;;;2.33;1.50;;;13.60;99.90;;;;;;6247182;23;20103;-82
2023/06/27 02:24:15;;;;;;;3.00;0.93;;;13.50;99.90;;;;;;6220109;23;20124;-82
2023/06/27 02:26:41;;;;;;;1.50;0.80;;;13.50;99.90;;;;;;6247109;23;20020;-82
2023/06/27 02:29:07;;;;;;;2.40;1.15;;;13.50;99.90;;;;;;6246752;23;20023;-83
2023/06/27 02:31:32;;;;;;;2.10;1.10;;;13.50;99.90;;;;;;6219593;23;20134;-82
2023/06/27 02:33:59;;;;;;;3.25;1.13;;;13.40;99.90;;;;;;6247314;23;20347;-83
2023/06/27 02:36:27;;;;;;;1.77;1.00;;;13.70;99.90;;;;;;6219594;23;20021;-83
2023/06/27 02:38:56;;;;;;;2.47;0.68;;;13.50;99.90;;;;;;6247110;23;20020;-82
2023/06/27 02:41:22;;;;;;;1.85;0.90;;;13.40;99.90;;;;;;6246873;23;20108;-82
2023/06/27 02:43:48;;;;;;;1.98;1.08;;;13.40;99.90;;;;;;6220455;23;20016;-82
2023/06/27 02:46:14;;;;;;;1.13;0.88;;;13.40;99.90;;;;;;6194876;23;20520;-82
2023/06/27 02:48:39;;;;;;;3.38;1.20;;;13.40;99.90;;;;;;6246717;23;20020;-82
2023/06/27 02:51:05;;;;;;;2.15;1.10;;;13.40;99.90;;;;;;6219753;23;20016;-82
2023/06/27 02:53:31;;;;;;;2.00;0.95;;;13.40;99.90;;;;;;6246258;23;20386;-82
2023/06/27 02:56:01;;;;;;;1.85;0.90;;;13.40;99.90;;;;;;6220067;23;20019;-82
2023/06/27 02:58:27;;;;;;;2.65;1.40;;;13.60;99.90;;;;;;6246880;23;20355;-82
2023/06/27 03:00:53;;;;;;;2.47;0.93;;;13.40;99.90;;;;;;6220309;23;20024;-83
2023/06/27 03:03:19;;;;;;;2.85;1.00;;;13.40;99.90;;;;;;6246282;23;20095;-82
2023/06/27 03:05:45;;;;;;;2.15;1.48;;;13.40;99.90;;;;;;6219689;23;20051;-82
2023/06/27 03:08:10;;;;;;;2.08;1.25;;;13.40;99.90;;;;;;6246639;23;20509;-83
2023/06/27 03:10:36;;;;;;;2.35;0.95;;;13.40;99.90;;;;;;6194046;23;20098;-82
2023/06/27 03:13:02;;;;;;;1.63;0.90;;;13.40;99.90;;;;;;6246474;23;20024;-83
2023/06/27 03:15:28;;;;;;;1.73;0.90;;;13.40;99.90;;;;;;6219174;23;20020;-82
2023/06/27 03:17:53;;;;;;;3.10;1.00;;;13.30;99.90;;;;;;6246862;23;20504;-82
2023/06/27 03:20:20;;;;;;;1.58;1.00;;;13.30;99.90;;;;;;6246938;23;20034;-83
2023/06/27 03:22:46;;;;;;;1.30;0.75;;;13.40;99.90;;;;;;6246432;23;20349;-83
2023/06/27 03:25:12;;;;;;;1.77;0.85;;;13.40;99.90;;;;;;6246565;23;20024;-83
2023/06/27 03:27:37;;;;;;;2.08;1.05;;;13.30;99.90;;;;;;6246191;23;20024;-83
2023/06/27 03:30:04;;;;;;;1.08;0.70;;;13.30;99.90;;;;;;6219293;23;20098;-83
2023/06/27 03:32:30;;;;;;;1.23;0.85;;;13.40;99.90;;;;;;6246730;23;20101;-83
2023/06/27 03:34:56;;;;;;;2.50;0.80;;;13.40;99.90;;;;;;6246415;23;20446;-82
2023/06/27 03:37:22;;;;;;;3.22;1.00;;;13.40;99.90;;;;;;6245971;23;20027;-82
2023/06/27 03:39:47;;;;;;;1.42;0.90;;;13.30;99.90;;;;;;6246759;23;20020;-83
2023/06/27 03:42:15;;;;;;;1.08;0.80;;;13.40;99.90;;;;;;6246630;23;20016;-83
2023/06/27 03:44:40;;;;;;;1.98;0.85;;;13.40;99.90;;;;;;6246352;23;20027;-84
2023/06/27 03:47:06;;;;;;;2.88;0.88;;;13.40;99.90;;;;;;6246616;23;20012;-84
2023/06/27 03:49:32;;;;;;;1.98;0.90;;;13.40;99.90;;;;;;6246469;23;20469;-82
2023/06/27 03:51:58;;;;;;;1.60;0.90;;;13.40;99.90;;;;;;6219040;23;20291;-84
2023/06/27 03:54:24;;;;;;;1.95;0.80;;;13.40;99.90;;;;;;6246396;23;20016;-82
2023/06/27 03:56:50;;;;;;;1.23;0.77;;;13.40;99.90;;;;;;6246303;23;20083;-85
2023/06/27 03:59:15;;;;;;;1.10;0.65;;;13.40;99.90;;;;;;6245522;23;20028;-84
2023/06/27 04:01:41;;;;;;;1.23;0.70;;;13.80;99.90;;;;;;6219407;23;20020;-84
2023/06/27 04:04:08;;;;;;;1.52;0.70;;;13.50;99.90;;;;;;6219729;23;20064;-83
2023/06/27 04:06:34;;;;;;;2.50;0.95;;;13.50;99.90;;;;;;6219060;23;20317;-84
2023/06/27 04:09:02;;;;;;;5.10;1.00;;;13.50;99.90;;;;;;6246129;23;20024;-83
2023/06/27 04:11:28;;;;;;;6.60;1.25;;;13.50;99.90;;;;;;6218919;23;20017;-83
2023/06/27 04:13:56;;;;;;;1.35;0.70;;;13.50;99.90;;;;;;6245705;23;20070;-84
2023/06/27 04:16:22;;;;;;;1.10;0.70;;;13.60;99.90;;;;;;6246109;23;20024;-83
2023/06/27 04:18:48;;;;;;;1.20;0.80;;;13.70;99.90;;;;;;6193894;23;20051;-83
2023/06/27 04:21:14;;;;;;;3.33;0.65;;;13.70;99.90;;;;;;6246199;23;20023;-84
2023/06/27 04:23:39;;;;;;;2.00;0.70;;;13.70;99.90;;;;;;6218780;23;20087;-85
2023/06/27 04:26:07;;;;;;;2.47;1.00;;;13.80;99.90;;;;;;6245495;23;20016;-84
2023/06/27 04:28:33;;;;;;;1.20;0.70;;;13.90;99.90;;;;;;6245341;23;20019;-84
2023/06/27 04:31:01;;;;;;;1.85;0.80;;;13.90;99.90;;;;;;6219179;23;20016;-84
2023/06/27 04:33:27;;;;;;;1.67;0.60;;;14.00;99.90;;;;;;6246136;23;20012;-83
2023/06/27 04:36:03;;;;;;;2.45;0.50;;;14.00;99.90;;;;;;6246026;23;20083;-84
2023/06/27 04:38:29;;;;;;;2.03;0.80;;;14.40;99.90;;;;;;6218675;23;20016;-83
2023/06/27 04:40:55;;;;;;;2.53;0.70;;;14.20;99.90;;;;;;6245264;23;20016;-85
2023/06/27 04:43:22;;;;;;;1.88;0.52;;;14.20;99.90;;;;;;6218672;23;20016;-85
2023/06/27 04:45:48;;;;;;;0.80;0.60;;;14.30;99.90;;;;;;6246044;23;20050;-85
2023/06/27 04:48:14;;;;;;;0.88;0.50;;;14.40;99.90;;;;;;6245700;23;20038;-85
2023/06/27 04:50:39;;;;;;;1.98;0.68;;;14.50;99.90;;;;;;6245658;23;20098;-84
2023/06/27 04:53:05;;;;;;;0.52;0.45;;;14.60;99.90;;;;;;6245587;23;20031;-84
2023/06/27 04:55:32;;;;;;;2.05;0.60;;;14.60;99.90;;;;;;6218835;23;20625;-84
2023/06/27 04:57:58;;;;;;;1.60;0.68;;;14.70;99.90;;;;;;6245587;23;20016;-84
2023/06/27 05:00:24;;;;;;;1.48;0.50;;;14.90;99.90;;;;;;6244794;23;20023;-84
2023/06/27 05:02:50;;;;;;;3.53;0.70;;;14.90;99.90;;;;;;6245883;23;20450;-86
2023/06/27 05:05:17;;;;;;;1.45;0.60;;;15.10;99.90;;;;;;6245761;23;20020;-83
2023/06/27 05:07:42;;;;;;;1.30;0.52;;;15.10;99.90;;;;;;6245645;23;20024;-85
2023/06/27 05:10:08;;;;;;;2.60;0.60;;;15.20;99.90;;;;;;6219096;23;20392;-84
2023/06/27 05:12:34;;;;;;;1.30;0.65;;;15.40;99.90;;;;;;6218432;23;20350;-83
2023/06/27 05:14:59;;;;;;;0.75;0.40;;;15.40;99.90;;;;;;6245631;23;20017;-84
2023/06/27 05:17:25;;;;;;;3.03;0.80;;;15.60;99.90;;;;;;6245011;23;20024;-84
2023/06/27 05:19:51;;;;;;;1.23;0.55;;;15.70;99.90;;;;;;6193528;23;20111;-86
2023/06/27 05:22:16;;;;;;;1.17;0.60;;;15.80;99.90;;;;;;6245673;23;20082;-84
2023/06/27 05:24:42;;;;;;;3.08;0.60;;;15.90;99.90;;;;;;6193591;23;20479;-84
2023/06/27 05:27:08;;;;;;;2.47;1.27;;;16.00;99.90;;;;;;6245323;23;20012;-84
2023/06/27 05:29:33;;;;;;;1.83;0.60;;;16.10;99.90;;;;;;6218129;23;20020;-84
2023/06/27 05:31:59;;;;;;;0.90;0.68;;;16.30;99.90;;;;;;6193436;23;20020;-83
2023/06/27 05:34:25;;;;;;;2.20;0.70;;;16.40;99.90;;;;;;6244339;23;20020;-84
2023/06/27 05:36:51;;;;;;;1.70;0.60;;;16.50;99.90;;;;;;6241735;23;20023;-82
2023/06/27 05:39:16;;;;;;;1.08;0.82;;;16.80;99.90;;;;;;6215693;23;20024;-88
2023/06/27 05:41:42;;;;;;;1.20;0.52;;;16.80;99.90;;;;;;6245318;23;20414;-85
2023/06/27 05:44:08;;;;;;;3.13;0.73;;;16.90;99.90;;;;;;6245161;23;20506;-85
2023/06/27 05:46:38;;;;;;;2.40;0.60;;;17.10;99.90;;;;;;6218428;23;20351;-85
2023/06/27 05:49:05;;;;;;;2.97;0.70;;;17.20;99.90;;;;;;6218218;23;20020;-85
2023/06/27 05:51:31;;;;;;;1.58;0.55;;;17.40;99.90;;;;;;6245263;23;20502;-86
2023/06/27 05:53:59;;;;;;;1.17;0.50;;;17.50;99.90;;;;;;6244696;23;20016;-84
2023/06/27 05:56:25;;;;;;;2.08;0.90;;;17.70;99.90;;;;;;6218047;23;20394;-88
2023/06/27 05:58:51;;;;;;;1.63;0.70;;;17.80;99.90;;;;;;6218502;23;20016;-85
2023/06/27 06:01:17;;;;;;;3.72;0.60;;;17.90;99.90;;;;;;6245012;23;20012;-86
2023/06/27 06:03:43;;;;;;;1.55;0.50;;;18.10;99.90;;;;;;6218296;23;20024;-86
2023/06/27 06:06:11;;;;;;;2.42;0.50;;;18.20;99.90;;;;;;6244929;23;20020;-85
2023/06/27 06:08:36;;;;;;;2.28;0.40;;;18.40;99.90;;;;;;6217656;23;20114;-84
2023/06/27 06:11:02;;;;;;;1.50;0.43;;;18.60;99.90;;;;;;6245416;23;20016;-84
2023/06/27 06:13:28;;;;;;;1.48;0.50;;;18.70;99.90;;;;;;6192850;23;20028;-84
2023/06/27 06:15:53;;;;;;;2.53;0.63;;;18.80;99.90;;;;;;6218659;23;20020;-85
2023/06/27 06:18:19;;;;;;;1.80;0.47;;;18.90;99.90;;;;;;6218795;23;20023;-86
2023/06/27 06:20:45;;;;;;;4.38;0.40;;;19.10;99.90;;;;;;6244950;23;20020;-85
2023/06/27 06:23:10;;;;;;;3.80;0.65;;;19.20;99.90;;;;;;6218441;23;20035;-84
2023/06/27 06:25:36;;;;;;;1.83;0.50;;;19.30;99.90;;;;;;6218790;23;20020;-85
2023/06/27 06:28:02;;;;;;;2.35;0.32;;;19.40;99.90;;;;;;6244937;23;20016;-84
2023/06/27 06:30:28;;;;;;;1.63;0.73;;;19.50;99.90;;;;;;6244780;23;20020;-85
2023/06/27 06:32:54;;;;;;;1.75;0.40;;;19.70;99.90;;;;;;6217533;23;20470;-87
2023/06/27 06:35:19;;;;;;;3.00;0.50;;;19.80;99.90;;;;;;6245201;23;20078;-84
2023/06/27 06:37:45;;;;;;;3.15;0.50;;;19.90;99.90;;;;;;6217841;23;20067;-86
2023/06/27 06:40:11;;;;;;;2.38;0.50;;;20.00;99.90;;;;;;6218942;23;20019;-88
2023/06/27 06:42:37;;;;;;;4.22;0.50;;;20.20;99.90;;;;;;6193107;23;20055;-84
2023/06/27 06:45:03;;;;;;;2.05;0.40;;;20.30;99.90;;;;;;6244404;23;20047;-86
2023/06/27 06:47:29;;;;;;;2.05;0.43;;;20.40;99.90;;;;;;6247072;23;20055;-87
2023/06/27 06:49:54;;;;;;;1.55;0.40;;;20.60;99.90;;;;;;6246750;23;20027;-86
2023/06/27 06:52:23;;;;;;;2.42;0.43;;;20.70;99.90;;;;;;6219298;23;20045;-86
2023/06/27 06:54:49;;;;;;;1.10;0.70;;;20.90;99.90;;;;;;6194729;23;20024;-86
2023/06/27 06:57:14;;;;;;;6.82;1.00;;;21.10;99.90;;;;;;6219825;23;20027;-86
2023/06/27 06:59:40;;;;;;;5.05;0.45;;;21.10;99.90;;;;;;6245987;23;20167;-86
2023/06/27 07:02:06;;;;;;;4.13;0.40;;;21.10;99.90;;;;;;6219740;23;20016;-85
2023/06/27 07:04:32;;;;;;;2.20;0.32;;;21.20;99.90;;;;;;6219840;23;20329;-84
2023/06/27 07:06:57;;;;;;;1.63;0.40;;;21.20;99.90;;;;;;6219602;23;20054;-84
2023/06/27 07:09:23;;;;;;;3.30;0.35;;;21.30;99.90;;;;;;6246070;23;20406;-83
2023/06/27 07:11:50;;;;;;;1.10;0.30;;;21.40;99.90;;;;;;6247164;23;20016;-88
2023/06/27 07:14:18;;;;;;;1.48;0.50;;;21.40;99.90;;;;;;6246977;23;20043;-89
2023/06/27 07:16:44;;;;;;;3.53;0.40;;;21.60;99.90;;;;;;6219683;23;20431;-83
2023/06/27 07:19:10;;;;;;;2.90;1.20;;;21.90;99.90;;;;;;6245979;23;20027;-86
2023/06/27 07:21:37;;;;;;;7.43;0.38;;;22.00;99.90;;;;;;6246478;23;20020;-85
2023/06/27 07:24:04;;;;;;;1.00;0.30;;;22.00;99.90;;;;;;6219407;23;20047;-84
2023/06/27 07:26:29;;;;;;;2.75;0.70;;;22.10;99.90;;;;;;6219927;23;20059;-86
2023/06/27 07:28:55;;;;;;;3.70;0.60;;;22.20;99.90;;;;;;6246235;23;20347;-85
2023/06/27 07:31:21;;;;;;;2.72;0.52;;;22.40;99.90;;;;;;6246570;23;20109;-84
2023/06/27 07:33:47;;;;;;;2.13;0.40;;;22.30;99.90;;;;;;6246414;23;20016;-87
2023/06/27 07:36:13;;;;;;;1.48;0.20;;;22.10;98.90;;;;;;6246663;23;20093;-87
2023/06/27 07:38:38;;;;;;;1.55;0.30;;;22.00;99.70;;;;;;6246800;23;20020;-85
2023/06/27 07:41:04;;;;;;;2.55;0.35;;;21.90;99.90;;;;;;6246567;23;20020;-85
2023/06/27 07:43:30;;;;;;;3.22;0.30;;;21.80;99.90;;;;;;6219157;23;20020;-85
2023/06/27 07:45:55;;;;;;;1.30;0.30;;;21.70;99.00;;;;;;6219006;23;20024;-85
2023/06/27 07:48:21;;;;;;;1.20;0.30;;;21.70;99.90;;;;;;6246266;23;20020;-84
2023/06/27 07:50:47;;;;;;;2.10;0.35;;;21.70;99.90;;;;;;6219292;23;20016;-86
2023/06/27 07:53:12;;;;;;;1.23;0.30;;;21.60;99.40;;;;;;6245764;23;20027;-86
2023/06/27 07:55:38;;;;;;;2.28;0.20;;;21.60;99.90;;;;;;6219914;23;20447;-84
2023/06/27 07:58:04;;;;;;;5.95;0.52;;;21.60;99.90;;;;;;6246036;23;20328;-86
2023/06/27 08:00:30;;;;;;;2.78;0.25;;;21.80;99.90;;;;;;6245679;23;20451;-84
2023/06/27 08:02:55;;;;;;;1.42;0.22;;;21.80;99.90;;;;;;6219623;23;20020;-86
2023/06/27 08:05:21;;;;;;;5.28;0.40;;;22.00;99.90;;;;;;6246536;23;20020;-84
2023/06/27 08:07:47;;;;;;;1.33;0.30;;;22.10;99.90;;;;;;6246566;23;20012;-84
2023/06/27 08:10:12;;;;;;;2.35;0.30;;;22.40;99.90;;;;;;6218907;23;20429;-85
2023/06/27 08:12:38;;;;;;;2.03;0.30;;;22.40;99.40;;;;;;6246051;23;20102;-84
2023/06/27 08:15:05;;;;;;;2.03;0.22;;;22.40;98.60;;;;;;6245845;23;20027;-85
2023/06/27 08:17:30;;;;;;;2.40;0.30;;;22.50;99.90;;;;;;6219170;23;20024;-85
2023/06/27 08:19:56;;;;;;;2.55;0.43;;;22.70;99.70;;;;;;6193899;23;20787;-84
2023/06/27 08:22:22;;;;;;;1.98;0.40;;;22.50;99.60;;;;;;6194061;23;20094;-84
2023/06/27 08:24:47;;;;;;;2.13;0.30;;;22.60;99.90;;;;;;6244708;23;20026;-86
2023/06/27 08:27:13;;;;;;;2.65;0.73;;;22.70;99.30;;;;;;6218755;23;20098;-84
2023/06/27 08:29:40;;;;;;;5.53;0.30;;;22.90;98.80;;;;;;6245394;23;20019;-86
2023/06/27 08:32:06;;;;;;;1.58;0.30;;;23.10;98.00;;;;;;6246464;23;20016;-89
2023/06/27 08:34:36;;;;;;;2.33;0.20;;;23.30;98.40;;;;;;6246910;23;20099;-88
2023/06/27 08:37:02;;;;;;;2.72;0.40;;;23.30;98.20;;;;;;6219060;23;20024;-88
2023/06/27 08:39:28;;;;;;;0.93;0.30;;;23.20;97.40;;;;;;6246222;23;20083;-89
2023/06/27 08:41:56;;;;;;;3.65;0.50;;;23.20;98.10;;;;;;6246074;23;20115;-85
2023/06/27 08:44:22;;;;;;;2.20;0.30;;;23.20;96.60;;;;;;6245858;23;20092;-85
2023/06/27 08:46:50;;;;;;;1.90;0.20;;;23.10;97.40;;;;;;6245964;23;20384;-87
2023/06/27 08:49:24;;;;;;;3.35;0.30;;;23.20;96.10;;;;;;6219061;23;20082;-84
2023/06/27 08:51:52;;;;;;;0.93;0.20;;;23.00;96.10;;;;;;6246372;23;20110;-87
2023/06/27 08:54:27;;;;;;;1.08;0.20;;;22.90;97.10;;;;;;6245710;23;20024;-90
2023/06/27 08:56:53;;;;;;;;;;;22.80;96.10;;;;;;6246553;23;20031;-88
2023/06/27 08:59:24;;;;;;;2.67;0.32;;;22.80;96.40;;;;;;6218471;23;19916;-86
2023/06/27 09:01:51;;;;;;;1.13;0.20;;;22.70;96.20;;;;;;6218869;23;20091;-85
2023/06/27 09:04:17;;;;;;;1.08;0.10;;;22.80;96.00;;;;;;6245867;23;20019;-87
2023/06/27 09:06:44;;;;;;;3.35;0.30;;;22.80;96.20;;;;;;6246274;23;20080;-86
2023/06/27 09:09:12;;;;;;;0.90;0.65;;;22.80;95.10;;;;;;6244804;23;20020;-87
2023/06/27 09:11:38;;;;;;;1.13;0.32;;;22.80;96.10;;;;;;6245996;23;20439;-87
2023/06/27 09:14:05;;;;;;;1.25;0.20;;;22.80;96.00;;;;;;6245542;23;20150;-87
2023/06/27 09:16:31;;;;;;;1.20;0.20;;;22.90;96.10;;;;;;6245911;23;20020;-85
2023/06/27 09:18:57;;;;;;;1.05;0.20;;;23.00;96.00;;;;;;6245554;23;20024;-86
2023/06/27 09:21:23;;;;;;;2.00;0.20;;;23.10;94.00;;;;;;6218864;23;20058;-87
2023/06/27 09:23:49;;;;;;;1.70;0.30;;;23.00;93.90;;;;;;6245460;23;20020;-89
2023/06/27 09:26:15;;;;;;;2.03;0.30;;;23.00;93.60;;;;;;6219391;23;20020;-86
2023/06/27 09:28:48;;;;;;;3.25;0.43;;;23.10;92.60;;;;;;6245704;22;20027;-83
2023/06/27 09:31:17;;;;;;;3.55;0.38;;;22.90;93.90;;;;;;6218321;23;20433;-87
2023/06/27 09:33:43;;;;;;;2.50;0.30;;;22.80;94.20;;;;;;6245105;23;20375;-89
2023/06/27 09:36:09;;;;;;;2.83;0.38;;;22.90;94.50;;;;;;6246233;23;20024;-87
2023/06/27 09:38:35;;;;;;;1.73;0.30;;;23.20;94.00;;;;;;6219821;23;20016;-86
2023/06/27 09:41:08;;;;;;;2.83;0.40;;;23.50;93.70;;;;;;6218351;23;20028;-87
2023/06/27 09:43:35;;;;;;;3.20;0.30;;;23.60;93.40;;;;;;6196243;23;20034;-88
2023/06/27 09:46:03;;;;;;;1.65;0.43;;;23.50;94.20;;;;;;6194686;23;20027;-87
2023/06/27 09:48:32;;;;;;;2.50;0.30;;;23.60;93.80;;;;;;6246478;23;20072;-87
2023/06/27 09:51:03;;;;;;;1.10;0.25;;;23.60;92.20;;;;;;6247656;23;20020;-86
2023/06/27 09:53:30;;;;;;;1.88;0.15;;;23.30;92.00;;;;;;6219319;23;20091;-87
2023/06/27 09:56:00;;;;;;;3.40;0.20;;;23.30;93.70;;;;;;6246309;23;20016;-87
2023/06/27 09:58:32;;;;;;;3.40;1.10;;;23.60;94.90;;;;;;6218625;23;20024;-85
2023/06/27 10:01:07;;;;;;;3.92;0.30;;;23.80;94.30;;;;;;6217910;23;20066;-83
2023/06/27 10:03:34;;;;;;;2.17;0.20;;;23.60;92.90;;;;;;6244750;23;20031;-84
2023/06/27 10:06:01;;;;;;;0.77;0.20;;;23.60;92.70;;;;;;6245255;23;20055;-83
2023/06/27 10:08:28;;;;;;;0.88;0.20;;;23.70;92.80;;;;;;6244722;23;20020;-84
2023/06/27 10:11:00;;;;;;;3.42;0.20;;;23.60;93.40;;;;;;6244708;23;20052;-85
2023/06/27 10:13:25;;;;;;;1.15;0.20;;;23.50;91.30;;;;;;6245793;23;20023;-85
2023/06/27 10:15:51;;;;;;;3.80;0.47;;;23.50;91.80;;;;;;6245527;23;20091;-85
2023/06/27 10:18:17;;;;;;;2.97;0.40;;;23.40;92.60;;;;;;6245496;23;20022;-85
2023/06/27 10:20:43;;;;;;;4.68;0.40;;;23.70;93.60;;;;;;6247431;23;20347;-84
2023/06/27 10:23:09;;;;;;;4.18;0.45;;;23.60;92.80;;;;;;6221885;23;20504;-86
2023/06/27 10:25:35;;;;;;;0.57;0.20;;;23.20;92.60;;;;;;6223208;23;20468;-85
2023/06/27 10:28:05;;;;;;;2.08;0.30;;;23.00;93.80;;;;;;6222346;23;20036;-86
2023/06/27 10:30:32;;;;;;;3.00;0.20;;;23.20;93.30;;;;;;6221925;23;20020;-85
2023/06/27 10:33:20;;;;;;;3.25;0.20;;;23.60;93.90;;;;;;6221496;23;20447;-87
2023/06/27 10:35:51;;;;;;;1.20;0.28;;;23.80;93.80;;;;;;6220578;23;20074;-82
2023/06/27 10:38:18;;;;;;;5.50;0.43;;;23.90;94.00;;;;;;6220065;23;20091;-83
2023/06/27 10:41:06;;;;;;;2.63;0.30;;;24.00;93.80;;;;;;6247243;23;20008;-83
2023/06/27 10:43:41;;;;;;;2.90;0.22;;;23.80;93.50;;;;;;6247347;23;20024;-85
2023/06/27 10:46:16;;;;;;;2.60;0.22;;;24.10;93.20;;;;;;6246875;23;20020;-82
2023/06/27 10:48:50;;;;;;;3.63;0.55;;;24.10;93.10;;;;;;6247310;23;20063;-82
2023/06/27 10:51:21;;;;;;;3.65;0.40;;;24.20;93.40;;;;;;6247282;23;20047;-86
2023/06/27 10:54:08;;;;;;;1.23;0.28;;;24.20;92.10;;;;;;6246865;23;20380;-85
2023/06/27 10:56:40;;;;;;;1.02;0.30;;;24.00;92.40;;;;;;6246860;23;20039;-87
2023/06/27 10:59:14;;;;;;;3.58;0.40;;;23.70;92.10;;;;;;6246772;23;20027;-84
2023/06/27 11:01:58;;;;;;;1.15;0.20;;;23.30;92.20;;;;;;6219945;23;20016;-85
2023/06/27 11:04:26;;;;;;;0.80;0.30;;;23.40;93.40;;;;;;6246765;23;20462;-83
2023/06/27 11:07:01;;;;;;;2.85;0.30;;;23.50;93.50;;;;;;6247078;23;20020;-83
2023/06/27 11:09:29;;;;;;;3.40;0.30;;;23.50;92.80;;;;;;6246777;23;20020;-82
2023/06/27 11:12:14;;;;;;;3.22;0.20;;;23.20;92.10;;;;;;6246766;23;20125;-83
2023/06/27 11:14:41;;;;;;;1.33;0.20;;;23.30;93.60;;;;;;6243751;23;20437;-85
2023/06/27 11:17:08;;;;;;;4.35;0.30;;;23.40;93.10;;;;;;6245907;23;20063;-83
2023/06/27 11:19:35;;;;;;;1.30;0.30;;;23.30;92.00;;;;;;6194523;23;20020;-83
2023/06/27 11:22:01;;;;;;;1.65;0.30;;;23.30;93.10;;;;;;6246444;23;20101;-82
2023/06/27 11:24:29;;;;;;;4.55;0.43;;;23.40;92.90;;;;;;6219498;23;20027;-82
2023/06/27 11:26:59;;;;;;;1.17;0.20;;;23.60;93.20;;;;;;6219795;23;20151;-82
2023/06/27 11:29:25;;;;;;;2.90;0.30;;;23.60;93.10;;;;;;6245228;23;20030;-83
2023/06/27 11:31:53;;;;;;;0.88;0.30;;;23.70;93.20;;;;;;6219090;23;20024;-83
2023/06/27 11:34:19;;;;;;;1.38;0.20;;;23.70;93.10;;;;;;6246746;23;20019;-83
2023/06/27 11:36:45;;;;;;;3.92;1.05;;;23.70;92.60;;;;;;6246480;23;20430;-82
2023/06/27 11:39:14;;;;;;;0.50;0.20;;;23.60;91.70;;;;;;6246849;23;20016;-82
2023/06/27 11:41:41;;;;;;;0.68;0.20;;;23.50;92.30;;;;;;6219955;23;20016;-82
2023/06/27 11:44:14;;;;;;;2.60;0.50;;;23.60;93.00;;;;;;6219811;23;20016;-83
2023/06/27 11:46:54;;;;;;;1.45;0.20;;;23.50;94.20;;;;;;6220393;23;20137;-82
2023/06/27 11:49:24;;;;;;;1.63;0.22;;;23.70;94.10;;;;;;6219263;23;20074;-83
2023/06/27 11:51:51;;;;;;;3.00;0.30;;;23.70;93.60;;;;;;6246515;23;20016;-82
2023/06/27 11:54:18;;;;;;;5.03;0.40;;;23.70;93.20;;;;;;6246142;23;20024;-82
2023/06/27 11:56:45;;;;;;;2.92;0.30;;;23.50;92.10;;;;;;6246210;23;20026;-82
2023/06/27 11:59:10;;;;;;;0.80;0.30;;;23.20;92.70;;;;;;6218864;23;20029;-82
2023/06/27 12:01:40;;;;;;;3.90;0.40;;;23.40;93.10;;;;;;6219200;23;20016;-83
2023/06/27 12:04:15;;;;;;;2.45;0.38;;;23.10;93.20;;;;;;6194280;23;20016;-82
2023/06/27 12:06:42;;;;;;;2.75;0.50;;;23.10;93.40;;;;;;6247553;23;20047;-82
2023/06/27 12:09:25;;;;;;;2.28;0.30;;;23.00;93.10;;;;;;6220455;23;20102;-84
2023/06/27 12:11:59;;;;;;;2.92;0.52;;;22.90;93.70;;;;;;6219690;23;20056;-82
2023/06/27 12:14:26;;;;;;;2.63;0.40;;;23.00;93.00;;;;;;6246396;23;20055;-82
2023/06/27 12:16:53;;;;;;;1.67;0.30;;;23.00;93.00;;;;;;6219026;23;20086;-83
2023/06/27 12:19:20;;;;;;;0.60;0.20;;;23.10;93.10;;;;;;6246298;23;20431;-82
2023/06/27 12:21:46;;;;;;;3.97;0.40;;;23.30;93.30;;;;;;6246309;23;20016;-84
2023/06/27 12:24:12;;;;;;;2.85;0.50;;;23.50;92.20;;;;;;6218803;23;20016;-83
2023/06/27 12:26:39;;;;;;;3.97;0.35;;;23.40;93.20;;;;;;6246208;23;20019;-82
2023/06/27 12:29:07;;;;;;;4.85;0.32;;;23.20;93.70;;;;;;6246095;23;20074;-81
2023/06/27 12:31:35;;;;;;;1.17;0.43;;;23.20;94.40;;;;;;6246246;23;20020;-82
2023/06/27 12:34:00;;;;;;;23.95;11.13;;;23.20;94.00;;;;;;6246404;23;20024;-82
2023/06/27 12:36:27;;;;;;;465.10;325.42;;;23.20;93.40;;;;;;6246124;23;20008;-86
2023/06/27 12:38:53;;;;;;;735.88;530.88;;;23.30;94.20;;;;;;6246284;23;20020;-86
2023/06/27 12:41:21;;;;;;;2.55;0.55;;;23.40;93.90;;;;;;6245189;23;20023;-84
2023/06/27 12:43:47;;;;;;;1.83;0.50;;;23.00;94.30;;;;;;6193857;23;20031;-82
2023/06/27 12:46:14;;;;;;;2.17;0.30;;;23.30;94.20;;;;;;6245756;23;20080;-87
2023/06/27 12:48:41;;;;;;;1.40;0.30;;;23.20;94.20;;;;;;6218308;23;20032;-86